sensor_id;sensor_type;location;lat;lon;timestamp;P1;durP1;ratioP1;P2;durP2;ratioP2
4889;SDS011;2459;42.268;23.112;2022-10-26T00:00:29;24.80;;;6.17;;
4889;SDS011;2459;42.268;23.112;2022-10-26T00:02:56;29.07;;;6.63;;
4889;SDS011;2459;42.268;23.112;2022-10-26T00:05:22;18.37;;;5.43;;
4889;SDS011;2459;42.268;23.112;2022-10-26T00:07:50;34.67;;;5.50;;
4889;SDS011;2459;42.268;23.112;2022-10-26T00:10:16;16.40;;;4.77;;
4889;SDS011;2459;42.268;23.112;2022-10-26T00:12:46;25.17;;;6.07;;
4889;SDS011;2459;42.268;23.112;2022-10-26T00:15:13;23.13;;;4.30;;
4889;SDS011;2459;42.268;23.112;2022-10-26T00:17:39;20.37;;;5.23;;
4889;SDS011;2459;42.268;23.112;2022-10-26T00:20:06;23.17;;;4.53;;
4889;SDS011;2459;42.268;23.112;2022-10-26T00:22:33;23.73;;;5.30;;
4889;SDS011;2459;42.268;23.112;2022-10-26T00:25:01;14.10;;;4.50;;
4889;SDS011;2459;42.268;23.112;2022-10-26T00:27:27;15.80;;;4.77;;
4889;SDS011;2459;42.268;23.112;2022-10-26T00:29:54;24.13;;;6.17;;
4889;SDS011;2459;42.268;23.112;2022-10-26T00:32:20;26.30;;;5.37;;
4889;SDS011;2459;42.268;23.112;2022-10-26T00:34:46;23.00;;;5.67;;
4889;SDS011;2459;42.268;23.112;2022-10-26T00:37:13;21.80;;;6.20;;
4889;SDS011;2459;42.268;23.112;2022-10-26T00:39:39;14.57;;;5.20;;
4889;SDS011;2459;42.268;23.112;2022-10-26T00:42:09;18.83;;;7.37;;
4889;SDS011;2459;42.268;23.112;2022-10-26T00:44:55;19.57;;;5.00;;
4889;SDS011;2459;42.268;23.112;2022-10-26T00:47:24;19.90;;;6.07;;
4889;SDS011;2459;42.268;23.112;2022-10-26T00:49:53;18.33;;;5.10;;
4889;SDS011;2459;42.268;23.112;2022-10-26T00:52:21;37.80;;;10.10;;
4889;SDS011;2459;42.268;23.112;2022-10-26T00:54:48;18.03;;;6.53;;
4889;SDS011;2459;42.268;23.112;2022-10-26T00:57:16;34.40;;;6.43;;
4889;SDS011;2459;42.268;23.112;2022-10-26T00:59:43;19.17;;;6.30;;
4889;SDS011;2459;42.268;23.112;2022-10-26T01:02:11;20.37;;;6.40;;
4889;SDS011;2459;42.268;23.112;2022-10-26T01:04:37;22.80;;;6.53;;
4889;SDS011;2459;42.268;23.112;2022-10-26T01:07:04;31.10;;;7.90;;
4889;SDS011;2459;42.268;23.112;2022-10-26T01:09:31;13.40;;;5.17;;
4889;SDS011;2459;42.268;23.112;2022-10-26T01:11:58;23.37;;;5.70;;
4889;SDS011;2459;42.268;23.112;2022-10-26T01:14:26;29.73;;;6.20;;
4889;SDS011;2459;42.268;23.112;2022-10-26T01:16:55;23.83;;;6.10;;
4889;SDS011;2459;42.268;23.112;2022-10-26T01:19:31;25.20;;;10.10;;
4889;SDS011;2459;42.268;23.112;2022-10-26T01:22:05;56.83;;;11.50;;
4889;SDS011;2459;42.268;23.112;2022-10-26T01:27:22;30.83;;;6.20;;
4889;SDS011;2459;42.268;23.112;2022-10-26T01:32:33;22.97;;;6.70;;
4889;SDS011;2459;42.268;23.112;2022-10-26T01:35:03;23.90;;;7.00;;
4889;SDS011;2459;42.268;23.112;2022-10-26T01:37:34;32.93;;;8.03;;
4889;SDS011;2459;42.268;23.112;2022-10-26T01:40:03;33.13;;;8.87;;
4889;SDS011;2459;42.268;23.112;2022-10-26T01:42:32;25.10;;;7.90;;
4889;SDS011;2459;42.268;23.112;2022-10-26T01:44:59;27.63;;;7.40;;
4889;SDS011;2459;42.268;23.112;2022-10-26T01:47:27;17.13;;;5.63;;
4889;SDS011;2459;42.268;23.112;2022-10-26T01:49:57;39.93;;;9.77;;
4889;SDS011;2459;42.268;23.112;2022-10-26T01:52:24;102.90;;;24.37;;
4889;SDS011;2459;42.268;23.112;2022-10-26T01:54:50;48.70;;;9.70;;
4889;SDS011;2459;42.268;23.112;2022-10-26T01:57:17;34.43;;;6.87;;
4889;SDS011;2459;42.268;23.112;2022-10-26T01:59:52;20.80;;;6.17;;
4889;SDS011;2459;42.268;23.112;2022-10-26T02:02:34;41.30;;;8.57;;
4889;SDS011;2459;42.268;23.112;2022-10-26T02:05:12;23.60;;;6.60;;
4889;SDS011;2459;42.268;23.112;2022-10-26T02:07:44;27.83;;;7.60;;
4889;SDS011;2459;42.268;23.112;2022-10-26T02:10:17;19.20;;;6.50;;
4889;SDS011;2459;42.268;23.112;2022-10-26T02:12:49;30.40;;;9.70;;
4889;SDS011;2459;42.268;23.112;2022-10-26T02:15:20;29.47;;;9.00;;
4889;SDS011;2459;42.268;23.112;2022-10-26T02:17:48;20.30;;;6.57;;
4889;SDS011;2459;42.268;23.112;2022-10-26T02:20:19;38.63;;;7.50;;
4889;SDS011;2459;42.268;23.112;2022-10-26T02:22:47;32.20;;;8.70;;
4889;SDS011;2459;42.268;23.112;2022-10-26T02:25:16;24.73;;;6.53;;
4889;SDS011;2459;42.268;23.112;2022-10-26T02:27:43;25.83;;;6.47;;
4889;SDS011;2459;42.268;23.112;2022-10-26T02:30:11;27.20;;;6.50;;
4889;SDS011;2459;42.268;23.112;2022-10-26T02:32:39;21.93;;;7.03;;
4889;SDS011;2459;42.268;23.112;2022-10-26T02:35:07;25.13;;;7.30;;
4889;SDS011;2459;42.268;23.112;2022-10-26T02:37:35;35.77;;;9.60;;
4889;SDS011;2459;42.268;23.112;2022-10-26T02:40:02;20.30;;;9.07;;
4889;SDS011;2459;42.268;23.112;2022-10-26T02:42:29;20.00;;;6.50;;
4889;SDS011;2459;42.268;23.112;2022-10-26T02:44:58;19.83;;;6.63;;
4889;SDS011;2459;42.268;23.112;2022-10-26T02:47:25;22.77;;;7.90;;
4889;SDS011;2459;42.268;23.112;2022-10-26T02:49:52;25.90;;;6.63;;
4889;SDS011;2459;42.268;23.112;2022-10-26T02:52:21;30.30;;;7.80;;
4889;SDS011;2459;42.268;23.112;2022-10-26T02:54:51;23.13;;;6.80;;
4889;SDS011;2459;42.268;23.112;2022-10-26T02:57:19;35.40;;;9.87;;
4889;SDS011;2459;42.268;23.112;2022-10-26T02:59:49;43.97;;;10.43;;
4889;SDS011;2459;42.268;23.112;2022-10-26T03:02:16;35.43;;;8.53;;
4889;SDS011;2459;42.268;23.112;2022-10-26T03:04:43;24.00;;;7.10;;
4889;SDS011;2459;42.268;23.112;2022-10-26T03:07:10;22.27;;;7.50;;
4889;SDS011;2459;42.268;23.112;2022-10-26T03:09:36;17.40;;;7.30;;
4889;SDS011;2459;42.268;23.112;2022-10-26T03:12:04;37.17;;;7.80;;
4889;SDS011;2459;42.268;23.112;2022-10-26T03:14:31;43.90;;;9.13;;
4889;SDS011;2459;42.268;23.112;2022-10-26T03:16:57;25.43;;;7.40;;
4889;SDS011;2459;42.268;23.112;2022-10-26T03:19:24;30.93;;;7.10;;
4889;SDS011;2459;42.268;23.112;2022-10-26T03:21:50;24.90;;;7.73;;
4889;SDS011;2459;42.268;23.112;2022-10-26T03:24:16;28.47;;;7.13;;
4889;SDS011;2459;42.268;23.112;2022-10-26T03:26:43;45.67;;;9.97;;
4889;SDS011;2459;42.268;23.112;2022-10-26T03:29:11;31.73;;;9.77;;
4889;SDS011;2459;42.268;23.112;2022-10-26T03:31:37;18.20;;;7.27;;
4889;SDS011;2459;42.268;23.112;2022-10-26T03:34:04;34.60;;;7.57;;
4889;SDS011;2459;42.268;23.112;2022-10-26T03:36:30;22.33;;;7.97;;
4889;SDS011;2459;42.268;23.112;2022-10-26T03:38:57;21.77;;;7.00;;
4889;SDS011;2459;42.268;23.112;2022-10-26T03:41:23;31.00;;;8.60;;
4889;SDS011;2459;42.268;23.112;2022-10-26T03:43:50;24.97;;;8.03;;
4889;SDS011;2459;42.268;23.112;2022-10-26T03:46:17;27.07;;;7.30;;
4889;SDS011;2459;42.268;23.112;2022-10-26T03:48:44;33.67;;;7.77;;
4889;SDS011;2459;42.268;23.112;2022-10-26T03:51:10;29.53;;;7.33;;
4889;SDS011;2459;42.268;23.112;2022-10-26T03:53:37;42.57;;;7.60;;
4889;SDS011;2459;42.268;23.112;2022-10-26T03:56:03;23.93;;;7.83;;
4889;SDS011;2459;42.268;23.112;2022-10-26T03:58:30;26.23;;;7.20;;
4889;SDS011;2459;42.268;23.112;2022-10-26T04:00:56;33.20;;;7.67;;
4889;SDS011;2459;42.268;23.112;2022-10-26T04:03:24;23.53;;;7.30;;
4889;SDS011;2459;42.268;23.112;2022-10-26T04:05:51;14.83;;;6.20;;
4889;SDS011;2459;42.268;23.112;2022-10-26T04:08:17;35.47;;;7.60;;
4889;SDS011;2459;42.268;23.112;2022-10-26T04:10:44;29.93;;;7.10;;
4889;SDS011;2459;42.268;23.112;2022-10-26T04:13:11;31.57;;;7.10;;
4889;SDS011;2459;42.268;23.112;2022-10-26T04:15:37;18.27;;;7.33;;
4889;SDS011;2459;42.268;23.112;2022-10-26T04:18:03;24.87;;;8.57;;
4889;SDS011;2459;42.268;23.112;2022-10-26T04:20:32;26.63;;;9.10;;
4889;SDS011;2459;42.268;23.112;2022-10-26T04:22:59;44.60;;;10.00;;
4889;SDS011;2459;42.268;23.112;2022-10-26T04:25:25;22.80;;;9.40;;
4889;SDS011;2459;42.268;23.112;2022-10-26T04:27:52;26.77;;;8.50;;
4889;SDS011;2459;42.268;23.112;2022-10-26T04:30:18;34.27;;;9.57;;
4889;SDS011;2459;42.268;23.112;2022-10-26T04:32:45;22.20;;;10.27;;
4889;SDS011;2459;42.268;23.112;2022-10-26T04:35:11;36.57;;;10.17;;
4889;SDS011;2459;42.268;23.112;2022-10-26T04:37:39;18.57;;;6.97;;
4889;SDS011;2459;42.268;23.112;2022-10-26T04:40:06;36.43;;;7.83;;
4889;SDS011;2459;42.268;23.112;2022-10-26T04:42:39;36.97;;;9.70;;
4889;SDS011;2459;42.268;23.112;2022-10-26T04:45:05;19.67;;;7.63;;
4889;SDS011;2459;42.268;23.112;2022-10-26T04:47:32;32.57;;;7.77;;
4889;SDS011;2459;42.268;23.112;2022-10-26T04:49:58;41.60;;;10.87;;
4889;SDS011;2459;42.268;23.112;2022-10-26T04:52:25;28.90;;;7.97;;
4889;SDS011;2459;42.268;23.112;2022-10-26T04:54:53;26.97;;;8.07;;
4889;SDS011;2459;42.268;23.112;2022-10-26T04:57:19;21.93;;;8.60;;
4889;SDS011;2459;42.268;23.112;2022-10-26T04:59:46;24.07;;;7.90;;
4889;SDS011;2459;42.268;23.112;2022-10-26T05:02:12;18.80;;;7.80;;
4889;SDS011;2459;42.268;23.112;2022-10-26T05:04:39;44.60;;;8.90;;
4889;SDS011;2459;42.268;23.112;2022-10-26T05:07:05;17.67;;;8.33;;
4889;SDS011;2459;42.268;23.112;2022-10-26T05:09:31;23.83;;;7.50;;
4889;SDS011;2459;42.268;23.112;2022-10-26T05:11:59;31.53;;;7.77;;
4889;SDS011;2459;42.268;23.112;2022-10-26T05:14:26;41.33;;;8.23;;
4889;SDS011;2459;42.268;23.112;2022-10-26T05:16:52;21.60;;;8.27;;
4889;SDS011;2459;42.268;23.112;2022-10-26T05:19:20;26.30;;;8.43;;
4889;SDS011;2459;42.268;23.112;2022-10-26T05:21:46;33.23;;;9.70;;
4889;SDS011;2459;42.268;23.112;2022-10-26T05:24:13;20.77;;;9.73;;
4889;SDS011;2459;42.268;23.112;2022-10-26T05:26:39;31.33;;;8.70;;
4889;SDS011;2459;42.268;23.112;2022-10-26T05:29:07;29.20;;;10.40;;
4889;SDS011;2459;42.268;23.112;2022-10-26T05:31:33;27.37;;;9.37;;
4889;SDS011;2459;42.268;23.112;2022-10-26T05:34:00;25.10;;;12.53;;
4889;SDS011;2459;42.268;23.112;2022-10-26T05:36:26;28.73;;;9.40;;
4889;SDS011;2459;42.268;23.112;2022-10-26T05:38:56;29.57;;;9.07;;
4889;SDS011;2459;42.268;23.112;2022-10-26T05:41:22;26.40;;;10.07;;
4889;SDS011;2459;42.268;23.112;2022-10-26T05:43:49;21.50;;;8.03;;
4889;SDS011;2459;42.268;23.112;2022-10-26T05:46:17;15.13;;;7.87;;
4889;SDS011;2459;42.268;23.112;2022-10-26T05:48:43;39.13;;;9.53;;
4889;SDS011;2459;42.268;23.112;2022-10-26T05:51:09;27.67;;;9.63;;
4889;SDS011;2459;42.268;23.112;2022-10-26T05:53:36;27.33;;;9.47;;
4889;SDS011;2459;42.268;23.112;2022-10-26T05:56:07;29.60;;;8.23;;
4889;SDS011;2459;42.268;23.112;2022-10-26T05:58:39;22.83;;;9.50;;
4889;SDS011;2459;42.268;23.112;2022-10-26T06:01:08;27.67;;;10.37;;
4889;SDS011;2459;42.268;23.112;2022-10-26T06:03:43;38.37;;;12.50;;
4889;SDS011;2459;42.268;23.112;2022-10-26T06:06:14;32.70;;;13.63;;
4889;SDS011;2459;42.268;23.112;2022-10-26T06:08:41;39.37;;;14.07;;
4889;SDS011;2459;42.268;23.112;2022-10-26T06:11:08;29.57;;;10.60;;
4889;SDS011;2459;42.268;23.112;2022-10-26T06:13:39;52.47;;;10.23;;
4889;SDS011;2459;42.268;23.112;2022-10-26T06:16:17;40.57;;;8.20;;
4889;SDS011;2459;42.268;23.112;2022-10-26T06:18:50;29.40;;;8.47;;
4889;SDS011;2459;42.268;23.112;2022-10-26T06:21:22;20.87;;;8.20;;
4889;SDS011;2459;42.268;23.112;2022-10-26T06:23:54;27.80;;;8.93;;
4889;SDS011;2459;42.268;23.112;2022-10-26T06:26:29;47.67;;;9.10;;
4889;SDS011;2459;42.268;23.112;2022-10-26T06:29:00;30.83;;;8.97;;
4889;SDS011;2459;42.268;23.112;2022-10-26T06:31:29;37.73;;;10.90;;
4889;SDS011;2459;42.268;23.112;2022-10-26T06:33:57;32.33;;;9.97;;
4889;SDS011;2459;42.268;23.112;2022-10-26T06:36:24;29.57;;;8.70;;
4889;SDS011;2459;42.268;23.112;2022-10-26T06:38:53;28.57;;;10.43;;
4889;SDS011;2459;42.268;23.112;2022-10-26T06:41:20;33.27;;;8.27;;
4889;SDS011;2459;42.268;23.112;2022-10-26T06:43:48;32.93;;;9.20;;
4889;SDS011;2459;42.268;23.112;2022-10-26T06:46:16;32.07;;;8.53;;
4889;SDS011;2459;42.268;23.112;2022-10-26T06:48:49;26.70;;;8.77;;
4889;SDS011;2459;42.268;23.112;2022-10-26T06:51:18;38.53;;;11.07;;
4889;SDS011;2459;42.268;23.112;2022-10-26T06:53:47;26.23;;;9.03;;
4889;SDS011;2459;42.268;23.112;2022-10-26T06:56:15;27.90;;;8.73;;
4889;SDS011;2459;42.268;23.112;2022-10-26T06:58:42;35.07;;;8.57;;
4889;SDS011;2459;42.268;23.112;2022-10-26T07:01:09;21.90;;;8.17;;
4889;SDS011;2459;42.268;23.112;2022-10-26T07:03:36;25.07;;;7.63;;
4889;SDS011;2459;42.268;23.112;2022-10-26T07:06:03;17.70;;;7.47;;
4889;SDS011;2459;42.268;23.112;2022-10-26T07:08:31;17.13;;;6.80;;
4889;SDS011;2459;42.268;23.112;2022-10-26T07:10:58;27.17;;;7.90;;
4889;SDS011;2459;42.268;23.112;2022-10-26T07:13:25;27.50;;;7.80;;
4889;SDS011;2459;42.268;23.112;2022-10-26T07:15:51;20.50;;;8.83;;
4889;SDS011;2459;42.268;23.112;2022-10-26T07:18:18;31.43;;;7.30;;
4889;SDS011;2459;42.268;23.112;2022-10-26T07:20:44;24.30;;;7.90;;
4889;SDS011;2459;42.268;23.112;2022-10-26T07:23:10;38.57;;;7.77;;
4889;SDS011;2459;42.268;23.112;2022-10-26T07:25:38;25.73;;;7.63;;
4889;SDS011;2459;42.268;23.112;2022-10-26T07:28:05;21.83;;;7.77;;
4889;SDS011;2459;42.268;23.112;2022-10-26T07:30:33;20.87;;;6.90;;
4889;SDS011;2459;42.268;23.112;2022-10-26T07:32:59;22.07;;;6.40;;
4889;SDS011;2459;42.268;23.112;2022-10-26T07:35:27;23.57;;;7.23;;
4889;SDS011;2459;42.268;23.112;2022-10-26T07:37:56;18.63;;;7.90;;
4889;SDS011;2459;42.268;23.112;2022-10-26T07:40:23;16.87;;;6.53;;
4889;SDS011;2459;42.268;23.112;2022-10-26T07:42:51;20.93;;;6.70;;
4889;SDS011;2459;42.268;23.112;2022-10-26T07:45:18;31.80;;;7.20;;
4889;SDS011;2459;42.268;23.112;2022-10-26T07:47:44;24.00;;;7.30;;
4889;SDS011;2459;42.268;23.112;2022-10-26T07:50:11;17.40;;;6.33;;
4889;SDS011;2459;42.268;23.112;2022-10-26T07:52:38;9.20;;;6.20;;
4889;SDS011;2459;42.268;23.112;2022-10-26T07:55:06;9.80;;;4.50;;
4889;SDS011;2459;42.268;23.112;2022-10-26T07:57:33;11.70;;;6.20;;
4889;SDS011;2459;42.268;23.112;2022-10-26T08:00:01;30.58;;;4.65;;
4889;SDS011;2459;42.268;23.112;2022-10-26T08:02:27;28.13;;;4.32;;
4889;SDS011;2459;42.268;23.112;2022-10-26T08:04:54;8.75;;;3.88;;
4889;SDS011;2459;42.268;23.112;2022-10-26T08:07:20;10.52;;;4.35;;
4889;SDS011;2459;42.268;23.112;2022-10-26T08:09:50;8.85;;;3.70;;
4889;SDS011;2459;42.268;23.112;2022-10-26T08:12:16;8.10;;;2.85;;
4889;SDS011;2459;42.268;23.112;2022-10-26T08:14:43;8.02;;;2.20;;
4889;SDS011;2459;42.268;23.112;2022-10-26T08:17:11;6.47;;;2.53;;
4889;SDS011;2459;42.268;23.112;2022-10-26T08:19:37;11.63;;;2.40;;
4889;SDS011;2459;42.268;23.112;2022-10-26T08:22:04;11.38;;;1.95;;
4889;SDS011;2459;42.268;23.112;2022-10-26T08:24:31;8.98;;;2.53;;
4889;SDS011;2459;42.268;23.112;2022-10-26T08:26:58;20.83;;;3.20;;
4889;SDS011;2459;42.268;23.112;2022-10-26T08:29:24;7.93;;;2.90;;
4889;SDS011;2459;42.268;23.112;2022-10-26T08:31:51;10.70;;;4.05;;
4889;SDS011;2459;42.268;23.112;2022-10-26T08:34:19;9.82;;;4.18;;
4889;SDS011;2459;42.268;23.112;2022-10-26T08:36:45;8.93;;;3.13;;
4889;SDS011;2459;42.268;23.112;2022-10-26T08:39:12;2.90;;;2.60;;
4889;SDS011;2459;42.268;23.112;2022-10-26T08:41:40;9.73;;;2.20;;
4889;SDS011;2459;42.268;23.112;2022-10-26T08:44:12;6.53;;;1.73;;
4889;SDS011;2459;42.268;23.112;2022-10-26T08:46:43;6.93;;;2.00;;
4889;SDS011;2459;42.268;23.112;2022-10-26T08:49:14;3.38;;;2.30;;
4889;SDS011;2459;42.268;23.112;2022-10-26T08:51:44;2.90;;;1.75;;
4889;SDS011;2459;42.268;23.112;2022-10-26T08:54:13;7.22;;;2.38;;
4889;SDS011;2459;42.268;23.112;2022-10-26T08:56:41;6.68;;;2.80;;
4889;SDS011;2459;42.268;23.112;2022-10-26T08:59:09;4.78;;;2.20;;
4889;SDS011;2459;42.268;23.112;2022-10-26T09:01:39;9.73;;;2.13;;
4889;SDS011;2459;42.268;23.112;2022-10-26T09:04:08;10.05;;;2.10;;
4889;SDS011;2459;42.268;23.112;2022-10-26T09:06:38;5.93;;;2.15;;
4889;SDS011;2459;42.268;23.112;2022-10-26T09:09:08;2.65;;;1.50;;
4889;SDS011;2459;42.268;23.112;2022-10-26T09:11:40;1.75;;;1.65;;
4889;SDS011;2459;42.268;23.112;2022-10-26T09:14:12;8.98;;;1.88;;
4889;SDS011;2459;42.268;23.112;2022-10-26T09:16:42;5.95;;;2.05;;
4889;SDS011;2459;42.268;23.112;2022-10-26T09:19:19;6.15;;;1.95;;
4889;SDS011;2459;42.268;23.112;2022-10-26T09:21:48;4.05;;;1.73;;
4889;SDS011;2459;42.268;23.112;2022-10-26T09:24:20;2.95;;;1.80;;
4889;SDS011;2459;42.268;23.112;2022-10-26T09:26:52;1.70;;;1.60;;
4889;SDS011;2459;42.268;23.112;2022-10-26T09:29:20;11.95;;;2.17;;
4889;SDS011;2459;42.268;23.112;2022-10-26T09:31:48;1.73;;;1.60;;
4889;SDS011;2459;42.268;23.112;2022-10-26T09:34:19;7.80;;;2.50;;
4889;SDS011;2459;42.268;23.112;2022-10-26T09:36:50;5.82;;;2.72;;
4889;SDS011;2459;42.268;23.112;2022-10-26T09:39:20;2.30;;;2.00;;
4889;SDS011;2459;42.268;23.112;2022-10-26T09:41:50;4.85;;;1.60;;
4889;SDS011;2459;42.268;23.112;2022-10-26T09:44:20;4.95;;;2.22;;
4889;SDS011;2459;42.268;23.112;2022-10-26T09:46:52;3.75;;;2.08;;
4889;SDS011;2459;42.268;23.112;2022-10-26T09:49:21;4.30;;;1.38;;
4889;SDS011;2459;42.268;23.112;2022-10-26T09:51:54;3.92;;;1.98;;
4889;SDS011;2459;42.268;23.112;2022-10-26T09:54:22;3.45;;;2.42;;
4889;SDS011;2459;42.268;23.112;2022-10-26T09:56:50;2.67;;;1.40;;
4889;SDS011;2459;42.268;23.112;2022-10-26T09:59:17;5.07;;;1.90;;
4889;SDS011;2459;42.268;23.112;2022-10-26T10:01:45;5.15;;;1.95;;
4889;SDS011;2459;42.268;23.112;2022-10-26T10:04:15;6.28;;;1.73;;
4889;SDS011;2459;42.268;23.112;2022-10-26T10:06:44;7.38;;;1.55;;
4889;SDS011;2459;42.268;23.112;2022-10-26T10:09:11;3.75;;;2.30;;
4889;SDS011;2459;42.268;23.112;2022-10-26T10:11:42;5.38;;;3.08;;
4889;SDS011;2459;42.268;23.112;2022-10-26T10:14:12;3.45;;;1.48;;
4889;SDS011;2459;42.268;23.112;2022-10-26T10:16:39;4.72;;;1.58;;
4889;SDS011;2459;42.268;23.112;2022-10-26T10:19:08;5.43;;;1.75;;
4889;SDS011;2459;42.268;23.112;2022-10-26T10:21:47;1.65;;;1.30;;
4889;SDS011;2459;42.268;23.112;2022-10-26T10:24:27;7.93;;;1.40;;
4889;SDS011;2459;42.268;23.112;2022-10-26T10:26:56;3.63;;;1.23;;
4889;SDS011;2459;42.268;23.112;2022-10-26T10:29:24;3.65;;;0.98;;
4889;SDS011;2459;42.268;23.112;2022-10-26T10:31:54;2.20;;;1.20;;
4889;SDS011;2459;42.268;23.112;2022-10-26T10:34:20;1.27;;;0.85;;
4889;SDS011;2459;42.268;23.112;2022-10-26T10:36:47;1.58;;;0.90;;
4889;SDS011;2459;42.268;23.112;2022-10-26T10:39:23;3.20;;;1.10;;
4889;SDS011;2459;42.268;23.112;2022-10-26T10:41:52;3.22;;;1.08;;
4889;SDS011;2459;42.268;23.112;2022-10-26T10:44:21;1.25;;;0.88;;
4889;SDS011;2459;42.268;23.112;2022-10-26T10:46:49;4.97;;;0.98;;
4889;SDS011;2459;42.268;23.112;2022-10-26T10:49:16;1.50;;;1.40;;
4889;SDS011;2459;42.268;23.112;2022-10-26T10:51:43;1.85;;;0.70;;
4889;SDS011;2459;42.268;23.112;2022-10-26T10:54:17;1.00;;;0.90;;
4889;SDS011;2459;42.268;23.112;2022-10-26T10:56:46;7.20;;;1.17;;
4889;SDS011;2459;42.268;23.112;2022-10-26T11:02:03;1.23;;;0.88;;
4889;SDS011;2459;42.268;23.112;2022-10-26T11:04:46;3.28;;;1.17;;
4889;SDS011;2459;42.268;23.112;2022-10-26T11:07:17;1.77;;;0.80;;
4889;SDS011;2459;42.268;23.112;2022-10-26T11:09:45;1.30;;;0.93;;
4889;SDS011;2459;42.268;23.112;2022-10-26T11:12:12;8.50;;;1.08;;
4889;SDS011;2459;42.268;23.112;2022-10-26T11:14:41;1.40;;;0.82;;
4889;SDS011;2459;42.268;23.112;2022-10-26T11:17:12;3.90;;;0.70;;
4889;SDS011;2459;42.268;23.112;2022-10-26T11:19:41;4.40;;;0.70;;
4889;SDS011;2459;42.268;23.112;2022-10-26T11:22:10;2.85;;;0.98;;
4889;SDS011;2459;42.268;23.112;2022-10-26T11:24:38;1.83;;;1.02;;
4889;SDS011;2459;42.268;23.112;2022-10-26T11:27:10;0.95;;;0.70;;
4889;SDS011;2459;42.268;23.112;2022-10-26T11:29:39;1.77;;;0.90;;
4889;SDS011;2459;42.268;23.112;2022-10-26T11:32:10;0.98;;;0.93;;
4889;SDS011;2459;42.268;23.112;2022-10-26T11:34:42;3.10;;;0.80;;
4889;SDS011;2459;42.268;23.112;2022-10-26T11:37:11;5.15;;;1.40;;
4889;SDS011;2459;42.268;23.112;2022-10-26T11:39:42;4.03;;;1.15;;
4889;SDS011;2459;42.268;23.112;2022-10-26T11:42:13;2.67;;;1.00;;
4889;SDS011;2459;42.268;23.112;2022-10-26T11:44:41;1.83;;;0.85;;
4889;SDS011;2459;42.268;23.112;2022-10-26T11:47:11;0.73;;;0.73;;
4889;SDS011;2459;42.268;23.112;2022-10-26T11:49:43;3.33;;;0.80;;
4889;SDS011;2459;42.268;23.112;2022-10-26T11:52:13;1.20;;;1.10;;
4889;SDS011;2459;42.268;23.112;2022-10-26T11:54:43;8.20;;;1.30;;
4889;SDS011;2459;42.268;23.112;2022-10-26T11:57:11;1.10;;;1.00;;
4889;SDS011;2459;42.268;23.112;2022-10-26T11:59:40;1.38;;;0.90;;
4889;SDS011;2459;42.268;23.112;2022-10-26T12:02:09;4.22;;;1.25;;
4889;SDS011;2459;42.268;23.112;2022-10-26T12:04:37;1.48;;;0.80;;
4889;SDS011;2459;42.268;23.112;2022-10-26T12:07:07;6.07;;;1.60;;
4889;SDS011;2459;42.268;23.112;2022-10-26T12:09:35;1.60;;;0.90;;
4889;SDS011;2459;42.268;23.112;2022-10-26T12:12:05;1.17;;;0.95;;
4889;SDS011;2459;42.268;23.112;2022-10-26T12:14:33;0.88;;;0.80;;
4889;SDS011;2459;42.268;23.112;2022-10-26T12:17:04;6.22;;;0.98;;
4889;SDS011;2459;42.268;23.112;2022-10-26T12:19:33;1.35;;;1.00;;
4889;SDS011;2459;42.268;23.112;2022-10-26T12:22:00;3.60;;;1.02;;
4889;SDS011;2459;42.268;23.112;2022-10-26T12:24:29;4.65;;;1.20;;
4889;SDS011;2459;42.268;23.112;2022-10-26T12:26:59;5.15;;;1.38;;
4889;SDS011;2459;42.268;23.112;2022-10-26T12:34:56;5.22;;;1.10;;
4889;SDS011;2459;42.268;23.112;2022-10-26T12:37:28;1.75;;;1.55;;
4889;SDS011;2459;42.268;23.112;2022-10-26T12:39:56;6.72;;;1.15;;
4889;SDS011;2459;42.268;23.112;2022-10-26T12:42:43;5.05;;;1.92;;
4889;SDS011;2459;42.268;23.112;2022-10-26T12:45:14;1.92;;;1.05;;
4889;SDS011;2459;42.268;23.112;2022-10-26T12:50:35;0.95;;;0.80;;
4889;SDS011;2459;42.268;23.112;2022-10-26T12:53:04;4.38;;;2.88;;
4889;SDS011;2459;42.268;23.112;2022-10-26T12:58:27;2.63;;;1.30;;
4889;SDS011;2459;42.268;23.112;2022-10-26T13:01:08;10.18;;;1.30;;
4889;SDS011;2459;42.268;23.112;2022-10-26T13:03:38;1.30;;;1.20;;
4889;SDS011;2459;42.268;23.112;2022-10-26T13:06:16;2.97;;;1.00;;
4889;SDS011;2459;42.268;23.112;2022-10-26T13:08:49;7.05;;;1.48;;
4889;SDS011;2459;42.268;23.112;2022-10-26T13:11:17;2.80;;;0.80;;
4889;SDS011;2459;42.268;23.112;2022-10-26T13:13:50;2.22;;;1.15;;
4889;SDS011;2459;42.268;23.112;2022-10-26T13:16:17;13.93;;;2.55;;
4889;SDS011;2459;42.268;23.112;2022-10-26T13:18:44;2.28;;;1.02;;
4889;SDS011;2459;42.268;23.112;2022-10-26T13:21:13;1.95;;;0.93;;
4889;SDS011;2459;42.268;23.112;2022-10-26T13:23:42;8.88;;;1.38;;
4889;SDS011;2459;42.268;23.112;2022-10-26T13:26:10;6.47;;;1.20;;
4889;SDS011;2459;42.268;23.112;2022-10-26T13:28:49;5.30;;;1.13;;
4889;SDS011;2459;42.268;23.112;2022-10-26T13:31:25;2.22;;;1.10;;
4889;SDS011;2459;42.268;23.112;2022-10-26T13:34:09;4.72;;;1.30;;
4889;SDS011;2459;42.268;23.112;2022-10-26T13:36:37;1.70;;;1.60;;
4889;SDS011;2459;42.268;23.112;2022-10-26T13:39:04;1.35;;;1.17;;
4889;SDS011;2459;42.268;23.112;2022-10-26T13:41:32;5.10;;;1.75;;
4889;SDS011;2459;42.268;23.112;2022-10-26T13:44:00;5.15;;;1.70;;
4889;SDS011;2459;42.268;23.112;2022-10-26T13:46:29;1.27;;;1.17;;
4889;SDS011;2459;42.268;23.112;2022-10-26T13:48:58;4.13;;;1.63;;
4889;SDS011;2459;42.268;23.112;2022-10-26T13:51:29;1.60;;;0.98;;
4889;SDS011;2459;42.268;23.112;2022-10-26T13:53:59;3.83;;;1.77;;
4889;SDS011;2459;42.268;23.112;2022-10-26T13:56:28;7.18;;;1.95;;
4889;SDS011;2459;42.268;23.112;2022-10-26T13:58:57;1.60;;;1.50;;
4889;SDS011;2459;42.268;23.112;2022-10-26T14:01:26;3.92;;;1.40;;
4889;SDS011;2459;42.268;23.112;2022-10-26T14:03:52;14.43;;;1.83;;
4889;SDS011;2459;42.268;23.112;2022-10-26T14:06:21;2.17;;;1.70;;
4889;SDS011;2459;42.268;23.112;2022-10-26T14:08:49;6.03;;;1.50;;
4889;SDS011;2459;42.268;23.112;2022-10-26T14:11:17;4.73;;;1.80;;
4889;SDS011;2459;42.268;23.112;2022-10-26T14:13:44;9.33;;;2.70;;
4889;SDS011;2459;42.268;23.112;2022-10-26T14:16:11;11.17;;;1.83;;
4889;SDS011;2459;42.268;23.112;2022-10-26T14:18:40;9.40;;;1.77;;
4889;SDS011;2459;42.268;23.112;2022-10-26T14:21:11;4.50;;;2.20;;
4889;SDS011;2459;42.268;23.112;2022-10-26T14:23:44;3.43;;;2.00;;
4889;SDS011;2459;42.268;23.112;2022-10-26T14:26:16;5.07;;;1.50;;
4889;SDS011;2459;42.268;23.112;2022-10-26T14:28:44;5.87;;;1.63;;
4889;SDS011;2459;42.268;23.112;2022-10-26T14:31:12;3.90;;;1.50;;
4889;SDS011;2459;42.268;23.112;2022-10-26T14:33:46;15.43;;;1.70;;
4889;SDS011;2459;42.268;23.112;2022-10-26T14:36:12;5.27;;;1.60;;
4889;SDS011;2459;42.268;23.112;2022-10-26T14:38:41;3.70;;;1.93;;
4889;SDS011;2459;42.268;23.112;2022-10-26T14:41:08;4.87;;;1.43;;
4889;SDS011;2459;42.268;23.112;2022-10-26T14:43:35;2.50;;;1.13;;
4889;SDS011;2459;42.268;23.112;2022-10-26T14:46:02;7.23;;;2.13;;
4889;SDS011;2459;42.268;23.112;2022-10-26T14:48:29;12.70;;;2.37;;
4889;SDS011;2459;42.268;23.112;2022-10-26T14:51:02;4.53;;;2.20;;
4889;SDS011;2459;42.268;23.112;2022-10-26T14:53:34;4.43;;;2.13;;
4889;SDS011;2459;42.268;23.112;2022-10-26T14:56:02;3.67;;;2.20;;
4889;SDS011;2459;42.268;23.112;2022-10-26T14:58:29;16.03;;;2.10;;
4889;SDS011;2459;42.268;23.112;2022-10-26T15:03:41;8.70;;;2.50;;
4889;SDS011;2459;42.268;23.112;2022-10-26T15:08:52;11.87;;;2.67;;
4889;SDS011;2459;42.268;23.112;2022-10-26T15:11:19;6.43;;;1.87;;
4889;SDS011;2459;42.268;23.112;2022-10-26T15:13:45;6.33;;;2.10;;
4889;SDS011;2459;42.268;23.112;2022-10-26T15:16:14;1.77;;;1.60;;
4889;SDS011;2459;42.268;23.112;2022-10-26T15:18:41;3.23;;;1.57;;
4889;SDS011;2459;42.268;23.112;2022-10-26T15:21:16;13.27;;;2.30;;
4889;SDS011;2459;42.268;23.112;2022-10-26T15:23:44;10.97;;;2.63;;
4889;SDS011;2459;42.268;23.112;2022-10-26T15:26:12;14.57;;;2.80;;